Time;durP1;ratioP1;P1;durP2;ratioP2;P2;SDS_P1;SDS_P2;PMS_P1;PMS_P2;Temp;Humidity;BMP_temperature;BMP_pressure;BME280_temperature;BME280_humidity;BME280_pressure;Samples;Min_cycle;Max_cycle;Signal;HPM_P1;HPM_P2
2022/06/12 00:00:04;;;;;;;;;;;;;;;28.40;38.69;100007.53;5056167;28;1060;-40
2022/06/12 00:02:30;;;;;;;;;;;;;;;28.29;38.84;100003.56;5056685;28;1009;-40
2022/06/12 00:04:55;;;;;;;;;;;;;;;28.29;38.99;99998.16;5057272;28;942;-40
2022/06/12 00:07:20;;;;;;;;;;;;;;;28.30;38.93;100005.22;5056777;28;968;-42
2022/06/12 00:09:45;;;;;;;;;;;;;;;28.34;38.93;100011.88;5057339;28;1032;-42
2022/06/12 00:12:11;;;;;;;;;;;;;;;28.44;38.39;100014.19;5052586;28;974;-40
2022/06/12 00:14:36;;;;;;;;;;;;;;;28.31;38.73;100014.97;5056665;28;1484;-39
2022/06/12 00:17:02;;;;;;;;;;;;;;;28.39;38.41;100015.84;5056716;28;1897;-41
2022/06/12 00:19:30;;;;;;;;;;;;;;;28.35;38.66;100016.28;5056783;28;986;-40
2022/06/12 00:21:55;;;;;;;;;;;;;;;28.37;38.56;100007.94;5056291;28;896;-41
2022/06/12 00:24:20;;;;;;;;;;;;;;;28.35;38.63;100010.03;5057029;28;1028;-39
2022/06/12 00:26:46;;;;;;;;;;;;;;;28.28;38.59;100010.00;5056966;28;1199;-42
2022/06/12 00:29:16;;;;;;;;;;;;;;;28.32;38.65;100005.00;5056305;28;973;-41
2022/06/12 00:31:43;;;;;;;;;;;;;;;28.29;38.80;100000.00;5056738;28;1195;-41
2022/06/12 00:34:08;;;;;;;;;;;;;;;28.26;38.63;99998.53;5056528;28;875;-41
2022/06/12 00:36:34;;;;;;;;;;;;;;;28.27;38.54;100002.09;5056763;28;1906;-40
2022/06/12 00:38:59;;;;;;;;;;;;;;;28.29;38.21;99997.31;5056772;28;927;-43
2022/06/12 00:41:24;;;;;;;;;;;;;;;28.34;38.60;100000.25;5056279;28;1040;-41
2022/06/12 00:43:50;;;;;;;;;;;;;;;28.32;38.50;99992.31;5055583;28;998;-39
2022/06/12 00:46:38;;;;;;;;;;;;;;;28.33;38.38;99980.47;5055912;28;994;-42
2022/06/12 00:49:07;;;;;;;;;;;;;;;28.29;38.60;99979.22;5034028;28;1017;-42
2022/06/12 00:51:32;;;;;;;;;;;;;;;28.31;38.40;99971.72;5018120;28;1284;-40
2022/06/12 00:53:58;;;;;;;;;;;;;;;28.34;38.24;99978.63;5017849;28;1133;-41
2022/06/12 00:56:24;;;;;;;;;;;;;;;28.36;38.54;99984.66;5017682;28;1981;-40
2022/06/12 00:58:51;;;;;;;;;;;;;;;28.27;38.27;99978.59;5018541;28;1169;-42
2022/06/12 01:01:36;;;;;;;;;;;;;;;28.31;38.04;99982.53;5015387;28;1022;-42
2022/06/12 01:06:46;;;;;;;;;;;;;;;28.28;38.20;99985.66;5036009;28;1006;-39
2022/06/12 01:09:12;;;;;;;;;;;;;;;28.25;38.31;99977.97;5035643;28;1116;-39
2022/06/12 01:11:38;;;;;;;;;;;;;;;28.28;38.11;99979.44;5018093;28;998;-43
2022/06/12 01:14:04;;;;;;;;;;;;;;;28.33;38.20;99985.88;5018201;28;1184;-40
2022/06/12 01:16:30;;;;;;;;;;;;;;;28.31;38.43;99984.41;5036092;28;1898;-41
2022/06/12 01:18:55;;;;;;;;;;;;;;;28.29;38.18;99981.09;5035689;28;1021;-41
2022/06/12 01:21:39;;;;;;;;;;;;;;;28.34;38.26;99986.72;5017591;28;1129;-39
2022/06/12 01:24:10;;;;;;;;;;;;;;;28.32;38.39;99988.78;5035481;28;986;-40
2022/06/12 01:26:47;;;;;;;;;;;;;;;28.33;38.69;99987.75;5017728;28;1097;-41
2022/06/12 01:29:15;;;;;;;;;;;;;;;28.28;38.66;99990.25;5035661;28;1037;-41
2022/06/12 01:31:56;;;;;;;;;;;;;;;28.24;38.68;99992.53;5035682;28;1129;-41
2022/06/12 01:34:21;;;;;;;;;;;;;;;28.24;38.66;99985.22;5017816;28;1058;-41
2022/06/12 01:37:05;;;;;;;;;;;;;;;28.27;38.41;99986.72;5032869;28;1905;-42
2022/06/12 01:39:38;;;;;;;;;;;;;;;28.19;38.69;99993.16;5030296;28;1205;-40
2022/06/12 01:42:16;;;;;;;;;;;;;;;28.22;38.33;99992.75;5018074;28;1121;-40
2022/06/12 01:44:48;;;;;;;;;;;;;;;28.24;38.46;99987.94;5035284;28;994;-41
2022/06/12 01:47:16;;;;;;;;;;;;;;;28.28;38.20;99996.47;5020037;28;1057;-41
2022/06/12 01:49:41;;;;;;;;;;;;;;;28.24;38.47;99989.84;5051874;28;1044;-40
2022/06/12 01:52:09;;;;;;;;;;;;;;;28.23;38.33;99983.59;5052524;28;1211;-39
2022/06/12 01:55:01;;;;;;;;;;;;;;;28.21;38.27;99982.16;5020338;28;1085;-41
2022/06/12 01:57:38;;;;;;;;;;;;;;;28.26;38.22;99974.22;5044704;28;955;-41
2022/06/12 02:00:06;;;;;;;;;;;;;;;28.26;38.14;99971.50;5032050;28;1115;-40
2022/06/12 02:02:43;;;;;;;;;;;;;;;28.26;37.76;99971.50;5031672;28;959;-40
2022/06/12 02:05:11;;;;;;;;;;;;;;;28.23;38.43;99974.63;5038001;28;966;-41
2022/06/12 02:07:45;;;;;;;;;;;;;;;28.23;38.25;99972.75;5051747;28;1036;-42
2022/06/12 02:10:22;;;;;;;;;;;;;;;28.22;38.17;99970.28;5038510;28;994;-38
2022/06/12 02:15:33;;;;;;;;;;;;;;;28.19;37.99;99968.00;5053321;28;1898;-41
2022/06/12 02:18:06;;;;;;;;;;;;;;;28.26;38.37;99970.69;5054920;28;1188;-39
2022/06/12 02:20:33;;;;;;;;;;;;;;;28.30;38.40;99971.91;5041726;28;1002;-40
2022/06/12 02:22:58;;;;;;;;;;;;;;;28.27;38.21;99966.94;5041356;28;1101;-40
2022/06/12 02:25:25;;;;;;;;;;;;;;;28.26;38.25;99966.09;5041175;28;1061;-40
2022/06/12 02:27:56;;;;;;;;;;;;;;;28.28;38.21;99972.13;5040873;28;1207;-40
2022/06/12 02:30:23;;;;;;;;;;;;;;;28.27;38.15;99965.06;5041358;28;1006;-41
2022/06/12 02:32:49;;;;;;;;;;;;;;;28.26;38.02;99970.69;5059233;28;934;-41
2022/06/12 02:35:22;;;;;;;;;;;;;;;28.32;37.88;99981.50;5040515;28;1898;-43
2022/06/12 02:37:51;;;;;;;;;;;;;;;28.35;37.89;99977.56;5058999;28;1060;-41
2022/06/12 02:40:20;;;;;;;;;;;;;;;28.29;38.05;99968.41;5058920;28;1180;-42
2022/06/12 02:42:46;;;;;;;;;;;;;;;28.40;37.94;99975.06;5054113;28;953;-41
2022/06/12 02:45:16;;;;;;;;;;;;;;;28.33;38.03;99975.06;5040396;28;1109;-39
2022/06/12 02:47:41;;;;;;;;;;;;;;;28.40;37.84;99975.06;5057497;28;1404;-42
2022/06/12 02:50:07;;;;;;;;;;;;;;;28.27;37.51;99970.47;5058669;28;1235;-41
2022/06/12 02:52:35;;;;;;;;;;;;;;;28.38;37.85;99974.44;5041124;28;985;-39
2022/06/12 02:55:12;;;;;;;;;;;;;;;28.34;37.86;99965.09;5038837;28;1910;-40
2022/06/12 02:57:45;;;;;;;;;;;;;;;28.28;37.93;99966.72;5058503;28;1148;-40
2022/06/12 03:00:10;;;;;;;;;;;;;;;28.14;38.98;99967.78;5040643;28;1034;-40
2022/06/12 03:02:37;;;;;;;;;;;;;;;28.01;39.08;99960.53;5058252;28;1017;-39
2022/06/12 03:05:17;;;;;;;;;;;;;;;28.01;38.93;99953.22;5039211;28;1271;-39
2022/06/12 03:07:42;;;;;;;;;;;;;;;27.94;39.56;99950.53;5057551;28;1152;-40
2022/06/12 03:10:08;;;;;;;;;;;;;;;27.97;40.27;99949.28;5057809;28;1215;-40
2022/06/12 03:12:33;;;;;;;;;;;;;;;27.96;39.93;99950.34;5039711;28;1315;-41
2022/06/12 03:14:59;;;;;;;;;;;;;;;27.99;40.41;99947.22;5057615;28;1902;-40
2022/06/12 03:17:24;;;;;;;;;;;;;;;28.03;40.06;99950.34;5055014;28;1313;-40
2022/06/12 03:19:51;;;;;;;;;;;;;;;27.94;40.25;99939.72;5039567;28;1248;-40
2022/06/12 03:22:29;;;;;;;;;;;;;;;27.97;40.51;99938.47;5039289;28;1973;-41
2022/06/12 03:24:54;;;;;;;;;;;;;;;28.00;40.05;99940.75;5040024;28;1204;-41
2022/06/12 03:27:38;;;;;;;;;;;;;;;28.05;39.97;99943.66;5058265;28;998;-40
2022/06/12 03:30:04;;;;;;;;;;;;;;;27.93;40.52;99946.16;5057291;28;1002;-41
2022/06/12 03:32:47;;;;;;;;;;;;;;;28.05;40.51;99953.63;5057870;28;1053;-39
2022/06/12 03:35:18;;;;;;;;;;;;;;;28.04;40.65;99955.53;5039156;28;1906;-41
2022/06/12 03:37:47;;;;;;;;;;;;;;;28.03;40.58;99966.56;5040671;28;1081;-41
2022/06/12 03:40:12;;;;;;;;;;;;;;;27.93;40.62;99958.84;5058438;28;1151;-40
2022/06/12 03:42:46;;;;;;;;;;;;;;;27.70;36.62;99963.63;5057957;28;998;-41
2022/06/12 03:45:22;;;;;;;;;;;;;;;27.68;37.49;99962.13;5037187;28;1137;-39
2022/06/12 03:47:51;;;;;;;;;;;;;;;27.70;38.89;99968.19;5040199;28;1054;-42
2022/06/12 03:50:16;;;;;;;;;;;;;;;27.79;41.42;99976.94;5057614;28;1033;-40
2022/06/12 03:52:53;;;;;;;;;;;;;;;27.75;41.75;99979.22;5057465;28;1191;-40
2022/06/12 03:57:50;;;;;;;;;;;;;;;27.83;42.05;99980.88;5039267;28;1890;-41
2022/06/12 03:58:12;;;;;;;;;;;;;;;27.91;41.77;99985.25;5041772;28;1053;-41
2022/06/12 04:00:38;;;;;;;;;;;;;;;27.98;41.64;99992.31;5038604;28;1004;-40
2022/06/12 04:03:08;;;;;;;;;;;;;;;27.98;41.50;99977.97;5057377;28;1025;-42
2022/06/12 04:05:35;;;;;;;;;;;;;;;27.82;40.24;99979.22;5034324;28;1045;-39
2022/06/12 04:08:02;;;;;;;;;;;;;;;27.87;41.21;99982.97;5034605;28;1076;-41
2022/06/12 04:10:29;;;;;;;;;;;;;;;27.85;40.98;99979.63;5034265;28;1204;-41
2022/06/12 04:12:54;;;;;;;;;;;;;;;27.88;41.49;99972.97;5039544;28;1052;-40
2022/06/12 04:15:31;;;;;;;;;;;;;;;27.89;41.56;99973.81;5036434;28;1954;-42
2022/06/12 04:17:57;;;;;;;;;;;;;;;27.89;41.47;99968.41;5037318;28;1239;-40
2022/06/12 04:20:23;;;;;;;;;;;;;;;27.99;42.16;99966.94;5056793;28;1128;-40
2022/06/12 04:23:02;;;;;;;;;;;;;;;27.97;41.56;99968.22;5037839;28;1168;-40
2022/06/12 04:25:53;;;;;;;;;;;;;;;27.89;42.09;99963.84;5053079;28;1060;-40
2022/06/12 04:28:23;;;;;;;;;;;;;;;27.98;42.36;99975.25;5044421;28;1536;-39
2022/06/12 04:30:49;;;;;;;;;;;;;;;28.13;41.56;99964.25;5049719;28;1003;-40
2022/06/12 04:33:25;;;;;;;;;;;;;;;28.06;41.92;99968.84;5053996;28;1057;-40
2022/06/12 04:35:51;;;;;;;;;;;;;;;28.01;42.04;99974.84;5053267;28;1953;-39
2022/06/12 04:38:17;;;;;;;;;;;;;;;27.93;42.38;99980.47;5052031;28;982;-38
2022/06/12 04:40:42;;;;;;;;;;;;;;;27.81;41.89;99977.56;5048443;28;1234;-40
2022/06/12 04:43:07;;;;;;;;;;;;;;;27.97;41.86;99963.63;5056337;28;1044;-42
2022/06/12 04:45:32;;;;;;;;;;;;;;;27.96;42.03;99964.66;5056042;28;922;-39
2022/06/12 04:47:58;;;;;;;;;;;;;;;27.90;41.59;99964.66;5038136;28;1439;-40
2022/06/12 04:50:23;;;;;;;;;;;;;;;27.73;40.25;99967.75;5056068;28;934;-38
2022/06/12 04:52:48;;;;;;;;;;;;;;;27.81;40.04;99966.75;5055863;28;1057;-40
2022/06/12 04:55:14;;;;;;;;;;;;;;;27.81;40.56;99959.47;5056008;28;1898;-41
2022/06/12 04:57:39;;;;;;;;;;;;;;;27.82;40.93;99963.84;5056336;28;981;-40
2022/06/12 05:00:05;;;;;;;;;;;;;;;27.80;41.76;99973.19;5033643;28;892;-40
2022/06/12 05:02:30;;;;;;;;;;;;;;;27.79;41.63;99975.06;5051599;28;986;-40
2022/06/12 05:04:55;;;;;;;;;;;;;;;27.82;42.06;99971.09;5053217;28;1013;-40
2022/06/12 05:07:20;;;;;;;;;;;;;;;27.83;42.18;99984.41;5056668;28;1127;-40
2022/06/12 05:09:46;;;;;;;;;;;;;;;27.83;42.00;99970.91;5056232;28;1151;-40
2022/06/12 05:12:12;;;;;;;;;;;;;;;27.78;42.24;99969.88;5037795;28;994;-41
2022/06/12 05:14:37;;;;;;;;;;;;;;;27.73;42.37;99968.59;5055730;28;1140;-38
2022/06/12 05:17:04;;;;;;;;;;;;;;;27.78;42.44;99965.28;5055874;28;1893;-41
2022/06/12 05:19:30;;;;;;;;;;;;;;;27.70;42.36;99960.91;5055719;28;1195;-40
2022/06/12 05:21:56;;;;;;;;;;;;;;;27.78;42.61;99961.78;5049810;28;1036;-39
2022/06/12 05:24:21;;;;;;;;;;;;;;;27.84;42.42;99950.13;5055536;28;1412;-40
2022/06/12 05:26:47;;;;;;;;;;;;;;;27.87;42.44;99944.28;5055555;28;1049;-38
2022/06/12 05:29:17;;;;;;;;;;;;;;;27.84;42.89;99942.00;5018370;28;982;-40
2022/06/12 05:31:44;;;;;;;;;;;;;;;27.82;42.94;99944.09;5051468;28;1159;-42
2022/06/12 05:34:09;;;;;;;;;;;;;;;27.77;42.91;99949.28;5055986;28;1578;-41
2022/06/12 05:36:34;;;;;;;;;;;;;;;27.85;43.11;99947.22;5053174;28;1973;-39
2022/06/12 05:39:00;;;;;;;;;;;;;;;27.84;42.93;99945.53;5055728;28;1061;-41
2022/06/12 05:41:25;;;;;;;;;;;;;;;27.86;43.03;99954.25;5055078;28;912;-39
2022/06/12 05:43:50;;;;;;;;;;;;;;;27.88;42.97;99940.53;5055480;28;1005;-37
2022/06/12 05:46:16;;;;;;;;;;;;;;;27.98;43.16;99954.47;5055271;28;1057;-42
2022/06/12 05:48:41;;;;;;;;;;;;;;;27.96;43.02;99961.16;5048683;28;1460;-40
2022/06/12 05:51:06;;;;;;;;;;;;;;;27.92;43.13;99968.00;5055510;28;978;-41
2022/06/12 05:53:32;;;;;;;;;;;;;;;27.88;43.35;99962.16;5056175;28;966;-41
2022/06/12 05:55:58;;;;;;;;;;;;;;;27.86;43.34;99970.47;5059533;28;1914;-40
2022/06/12 05:58:24;;;;;;;;;;;;;;;27.84;43.47;99963.63;5059709;28;1228;-40
2022/06/12 06:00:49;;;;;;;;;;;;;;;27.82;43.19;99963.00;5058295;28;899;-40
2022/06/12 06:03:15;;;;;;;;;;;;;;;27.92;43.58;99958.03;5059786;28;1172;-40
2022/06/12 06:05:41;;;;;;;;;;;;;;;27.99;43.09;99956.13;5059967;28;1164;-40
2022/06/12 06:08:06;;;;;;;;;;;;;;;27.89;43.44;99958.44;5059050;28;986;-42
2022/06/12 06:10:31;;;;;;;;;;;;;;;27.96;43.20;99944.94;5059339;28;1203;-40
2022/06/12 06:12:57;;;;;;;;;;;;;;;28.03;43.27;99951.16;5041952;28;998;-39
2022/06/12 06:15:22;;;;;;;;;;;;;;;27.97;43.12;99957.41;5058761;28;1960;-41
2022/06/12 06:17:48;;;;;;;;;;;;;;;27.70;39.60;99955.50;5056547;28;1223;-42
2022/06/12 06:20:14;;;;;;;;;;;;;;;27.87;41.47;99953.25;5059532;28;1054;-40
2022/06/12 06:22:40;;;;;;;;;;;;;;;27.74;38.15;99956.75;5059262;28;1144;-41
2022/06/12 06:25:05;;;;;;;;;;;;;;;27.75;39.41;99949.47;5059352;28;1001;-40
2022/06/12 06:27:30;;;;;;;;;;;;;;;27.86;41.08;99950.75;5059264;28;1059;-41
2022/06/12 06:29:56;;;;;;;;;;;;;;;27.97;41.57;99947.41;5058813;28;1044;-40
2022/06/12 06:32:21;;;;;;;;;;;;;;;28.01;42.31;99960.53;5059078;28;1490;-40
2022/06/12 06:34:46;;;;;;;;;;;;;;;28.02;42.32;99959.47;5059221;28;969;-40
2022/06/12 06:37:12;;;;;;;;;;;;;;;28.01;42.27;99961.31;5058810;28;1902;-40
2022/06/12 06:39:38;;;;;;;;;;;;;;;28.04;42.44;99971.75;5058917;28;981;-41
2022/06/12 06:42:04;;;;;;;;;;;;;;;28.09;42.40;99965.72;5059133;28;1121;-39
2022/06/12 06:47:13;;;;;;;;;;;;;;;28.17;42.06;99970.06;5058230;28;1194;-39
2022/06/12 06:49:39;;;;;;;;;;;;;;;28.28;42.33;99963.22;5057493;28;962;-40
2022/06/12 06:52:04;;;;;;;;;;;;;;;28.16;42.44;99969.22;5057790;28;1555;-39
2022/06/12 06:54:29;;;;;;;;;;;;;;;28.19;42.44;99968.84;5058185;28;1044;-40
2022/06/12 06:56:55;;;;;;;;;;;;;;;28.29;42.34;99970.25;5056829;28;1906;-39
2022/06/12 06:59:20;;;;;;;;;;;;;;;28.23;42.44;99966.50;5056661;28;1057;-38
2022/06/12 07:01:46;;;;;;;;;;;;;;;28.21;42.30;99971.31;5056489;28;1076;-39
2022/06/12 07:04:11;;;;;;;;;;;;;;;28.20;42.24;99975.91;5037282;28;1017;-39
2022/06/12 07:06:36;;;;;;;;;;;;;;;28.21;42.60;99980.25;5057200;28;954;-39
2022/06/12 07:09:02;;;;;;;;;;;;;;;28.11;42.51;99975.25;5056842;28;1223;-37
2022/06/12 07:11:27;;;;;;;;;;;;;;;28.15;42.42;99982.94;5056638;28;1097;-40
2022/06/12 07:13:53;;;;;;;;;;;;;;;28.33;43.18;99974.22;5053953;28;1100;-36
2022/06/12 07:16:18;;;;;;;;;;;;;;;28.30;42.08;99978.16;5052618;28;1918;-40
2022/06/12 07:18:43;;;;;;;;;;;;;;;28.18;42.70;99986.06;5053132;28;1127;-41
2022/06/12 07:21:09;;;;;;;;;;;;;;;28.15;42.83;99991.91;5054292;28;922;-41
2022/06/12 07:23:34;;;;;;;;;;;;;;;28.16;43.08;99992.75;5047460;28;932;-40
2022/06/12 07:26:04;;;;;;;;;;;;;;;28.11;43.06;99994.19;5056260;28;970;-41
2022/06/12 07:28:29;;;;;;;;;;;;;;;28.13;43.03;99999.38;5056763;28;1183;-40
2022/06/12 07:30:54;;;;;;;;;;;;;;;28.17;42.77;99997.94;5056464;28;1069;-39
2022/06/12 07:33:20;;;;;;;;;;;;;;;28.22;42.68;100003.56;5056054;28;1187;-40
2022/06/12 07:35:45;;;;;;;;;;;;;;;28.23;42.76;100001.66;5056513;28;1991;-39
2022/06/12 07:38:12;;;;;;;;;;;;;;;28.24;42.92;99996.06;5056141;28;1445;-41
2022/06/12 07:40:44;;;;;;;;;;;;;;;28.23;42.84;99998.97;5037112;28;1201;-40
2022/06/12 07:43:10;;;;;;;;;;;;;;;28.25;42.77;99999.59;5056506;28;998;-40
2022/06/12 07:45:36;;;;;;;;;;;;;;;28.23;42.80;100009.78;5055639;28;1044;-41
2022/06/12 07:48:01;;;;;;;;;;;;;;;28.24;42.86;100006.88;5008566;28;1369230;-39
2022/06/12 07:50:27;;;;;;;;;;;;;;;28.22;42.67;100010.84;5039221;28;1049;-42
2022/06/12 07:52:52;;;;;;;;;;;;;;;28.16;42.89;100001.66;5056700;28;1029;-41
2022/06/12 07:55:18;;;;;;;;;;;;;;;28.19;43.17;100004.00;5056560;28;1898;-41
2022/06/12 07:57:43;;;;;;;;;;;;;;;28.26;42.67;100003.94;5052521;28;1049;-40
2022/06/12 08:00:10;;;;;;;;;;;;;;;28.20;42.82;100005.63;5056220;28;1021;-41
2022/06/12 08:02:35;;;;;;;;;;;;;;;28.23;42.71;99999.81;5056588;28;1021;-41
2022/06/12 08:05:01;;;;;;;;;;;;;;;28.20;42.87;100002.94;5056938;28;1030;-41
2022/06/12 08:07:26;;;;;;;;;;;;;;;28.21;43.00;100012.69;5056351;28;1120;-40
2022/06/12 08:09:51;;;;;;;;;;;;;;;28.20;43.06;100011.03;5056383;28;929;-39
2022/06/12 08:12:16;;;;;;;;;;;;;;;28.30;42.57;100009.78;5055512;28;1658;-40
2022/06/12 08:14:42;;;;;;;;;;;;;;;28.30;42.75;100018.75;5055787;28;1171;-41
2022/06/12 08:17:07;;;;;;;;;;;;;;;28.30;42.55;100015.19;5055359;28;1910;-40
2022/06/12 08:22:16;;;;;;;;;;;;;;;28.33;42.83;100010.22;5056534;28;1011;-41
2022/06/12 08:24:42;;;;;;;;;;;;;;;28.33;42.83;100012.09;5038232;28;1170;-39
2022/06/12 08:27:07;;;;;;;;;;;;;;;28.33;42.53;100014.81;5055633;28;850;-40
2022/06/12 08:29:32;;;;;;;;;;;;;;;28.34;42.81;100016.47;5054354;28;1037;-39
2022/06/12 08:32:02;;;;;;;;;;;;;;;28.38;42.79;100019.59;5056343;28;978;-39
2022/06/12 08:34:30;;;;;;;;;;;;;;;28.38;42.94;100025.81;5038597;28;1184;-37
2022/06/12 08:36:56;;;;;;;;;;;;;;;28.38;42.53;100017.72;5056136;28;1898;-39
2022/06/12 08:39:22;;;;;;;;;;;;;;;28.35;42.82;100020.84;5038402;28;1025;-39
2022/06/12 08:41:47;;;;;;;;;;;;;;;28.43;42.61;100017.91;5056317;28;958;-40
2022/06/12 08:44:31;;;;;;;;;;;;;;;28.40;42.63;100022.91;5056218;28;962;-38
2022/06/12 08:47:02;;;;;;;;;;;;;;;28.39;42.68;100032.91;5053139;28;1457;-38
2022/06/12 08:49:27;;;;;;;;;;;;;;;28.21;39.74;100025.41;5038565;28;998;-40
2022/06/12 08:52:13;;;;;;;;;;;;;;;28.32;41.07;100018.53;5055181;28;1195;-40
2022/06/12 08:54:40;;;;;;;;;;;;;;;28.28;41.92;100025.41;5056172;28;1065;-39
2022/06/12 08:57:16;;;;;;;;;;;;;;;28.34;42.18;100020.00;5039050;28;1991;-39
2022/06/12 08:59:48;;;;;;;;;;;;;;;28.38;42.37;100030.44;5037673;28;1125;-39
2022/06/12 09:02:18;;;;;;;;;;;;;;;28.54;42.10;100035.41;5052427;28;1243;-38
2022/06/12 09:04:43;;;;;;;;;;;;;;;28.50;41.54;100036.00;5055893;28;1363;-38
2022/06/12 09:07:13;;;;;;;;;;;;;;;28.44;41.97;100037.69;5038230;28;1085;-40
2022/06/12 09:09:41;;;;;;;;;;;;;;;28.47;42.21;100039.97;5056176;28;1112;-38
2022/06/12 09:12:20;;;;;;;;;;;;;;;28.55;41.89;100025.41;5038102;28;1235;-40
2022/06/12 09:15:03;;;;;;;;;;;;;;;28.49;42.33;100035.19;5037083;28;1086;-41
2022/06/12 09:17:47;;;;;;;;;;;;;;;28.51;42.15;100035.81;5055214;28;1971;-38
2022/06/12 09:20:15;;;;;;;;;;;;;;;28.54;42.33;100029.16;5053811;28;1152;-40
2022/06/12 09:22:55;;;;;;;;;;;;;;;28.57;42.40;100032.28;5036620;28;1216;-40
2022/06/12 09:25:33;;;;;;;;;;;;;;;28.56;42.30;100036.00;5037787;28;1227;-40
2022/06/12 09:28:25;;;;;;;;;;;;;;;28.51;42.77;100035.81;5038114;28;958;-39
2022/06/12 09:31:14;;;;;;;;;;;;;;;28.55;42.71;100030.81;5047368;28;1486;-40
2022/06/12 09:33:43;;;;;;;;;;;;;;;28.56;42.32;100032.47;5048377;28;1087;-40
2022/06/12 09:36:18;;;;;;;;;;;;;;;28.55;42.42;100026.22;5055319;28;1999;-41
2022/06/12 09:38:44;;;;;;;;;;;;;;;28.66;42.37;100023.94;5038115;28;1026;-39
2022/06/12 09:41:12;;;;;;;;;;;;;;;28.55;42.33;100028.09;5055702;28;1144;-39
2022/06/12 09:43:56;;;;;;;;;;;;;;;28.56;42.51;100029.78;5054955;28;957;-39
2022/06/12 09:46:21;;;;;;;;;;;;;;;28.51;42.62;100030.38;5055705;28;1326;-40
2022/06/12 09:48:47;;;;;;;;;;;;;;;28.60;42.45;100039.97;5055331;28;1144;-40
2022/06/12 09:51:15;;;;;;;;;;;;;;;28.59;42.41;100027.47;5055392;28;931;-39
2022/06/12 09:53:40;;;;;;;;;;;;;;;28.57;42.21;100026.03;5055839;28;982;-40
2022/06/12 09:56:35;;;;;;;;;;;;;;;28.69;41.94;100020.81;5055195;28;1951;-40
2022/06/12 09:59:09;;;;;;;;;;;;;;;28.65;41.98;100019.53;4990244;28;1160;-39
2022/06/12 10:01:35;;;;;;;;;;;;;;;28.66;42.48;100007.69;5055345;28;1104;-41
2022/06/12 10:04:06;;;;;;;;;;;;;;;28.62;42.22;100014.56;5037423;28;1073;-37
2022/06/12 10:06:46;;;;;;;;;;;;;;;28.55;42.39;100019.97;5037773;28;1453;-41
2022/06/12 10:09:12;;;;;;;;;;;;;;;28.56;42.48;100018.97;5055324;28;910;-39
2022/06/12 10:11:40;;;;;;;;;;;;;;;28.57;42.52;100020.59;5055186;28;1140;-36
2022/06/12 10:14:20;;;;;;;;;;;;;;;28.64;42.40;100024.16;5054969;28;965;-40
2022/06/12 10:16:47;;;;;;;;;;;;;;;28.59;42.55;100027.47;5036433;28;1890;-42
2022/06/12 10:19:17;;;;;;;;;;;;;;;28.60;42.33;100029.16;5036921;28;974;-40
2022/06/12 10:21:43;;;;;;;;;;;;;;;28.58;42.12;100036.63;5037168;28;1192;-40
2022/06/12 10:24:10;;;;;;;;;;;;;;;28.57;42.04;100034.97;5034009;28;1159;-41
2022/06/12 10:26:35;;;;;;;;;;;;;;;28.55;42.19;100037.06;5036936;28;974;-40
2022/06/12 10:29:09;;;;;;;;;;;;;;;28.60;42.47;100033.72;5054438;28;1022;-39
2022/06/12 10:31:34;;;;;;;;;;;;;;;28.60;42.02;100036.41;5052580;28;939;-40
2022/06/12 10:34:16;;;;;;;;;;;;;;;28.63;42.08;100040.59;5036472;28;1148;-40
2022/06/12 10:36:41;;;;;;;;;;;;;;;28.72;41.84;100032.03;5054868;28;1906;-40
2022/06/12 10:39:11;;;;;;;;;;;;;;;28.75;41.63;100030.78;5052408;28;1061;-37
2022/06/12 10:41:44;;;;;;;;;;;;;;;28.72;41.78;100032.03;5058266;28;1100;-40
2022/06/12 10:44:25;;;;;;;;;;;;;;;28.69;40.92;100024.34;5058021;28;1290;-40
2022/06/12 10:46:50;;;;;;;;;;;;;;;28.78;41.21;100024.13;5057541;28;1084;-40
2022/06/12 10:49:17;;;;;;;;;;;;;;;28.77;41.25;100019.72;5058528;28;1151;-39
2022/06/12 10:51:42;;;;;;;;;;;;;;;28.84;41.64;100017.84;5058053;28;918;-40
2022/06/12 10:54:17;;;;;;;;;;;;;;;28.82;41.54;100019.94;5057638;28;922;-40
2022/06/12 10:56:44;;;;;;;;;;;;;;;28.90;41.39;100017.00;5035468;28;1910;-41
2022/06/12 10:59:24;;;;;;;;;;;;;;;28.93;41.49;100013.84;5057630;28;986;-38
2022/06/12 11:02:07;;;;;;;;;;;;;;;28.87;41.66;100005.75;5057300;28;1149;-39
2022/06/12 11:04:51;;;;;;;;;;;;;;;28.88;41.70;100002.81;5057786;28;1188;-38
2022/06/12 11:07:25;;;;;;;;;;;;;;;28.98;41.27;100004.31;5053696;28;1144;-38
2022/06/12 11:09:56;;;;;;;;;;;;;;;29.00;41.00;100005.75;5029696;28;1244;-39
2022/06/12 11:12:41;;;;;;;;;;;;;;;29.01;41.02;99991.16;5056901;28;1469;-39
2022/06/12 11:15:25;;;;;;;;;;;;;;;28.96;41.02;99997.19;5056243;28;1057;-39
2022/06/12 11:17:56;;;;;;;;;;;;;;;29.02;41.15;99982.00;5051417;28;1029;-40
2022/06/12 11:20:36;;;;;;;;;;;;;;;29.11;41.25;99982.59;5039574;28;1192;-39
2022/06/12 11:23:23;;;;;;;;;;;;;;;29.13;41.11;99990.50;5057233;28;1318;-39
2022/06/12 11:25:57;;;;;;;;;;;;;;;29.19;41.01;99984.22;5055574;28;1112;-39
2022/06/12 11:28:31;;;;;;;;;;;;;;;29.14;41.00;99973.19;5057865;28;1002;-39
2022/06/12 11:31:03;;;;;;;;;;;;;;;29.11;41.35;99979.03;5057339;28;989;-39
2022/06/12 11:33:34;;;;;;;;;;;;;;;29.07;41.44;99986.75;5050808;28;962;-41
2022/06/12 11:35:59;;;;;;;;;;;;;;;29.00;41.57;99981.38;5057255;28;1972;-39
2022/06/12 11:38:31;;;;;;;;;;;;;;;29.07;41.54;99981.34;5056888;28;848;-41
2022/06/12 11:41:00;;;;;;;;;;;;;;;29.09;41.52;99976.56;5051445;28;926;-40
2022/06/12 11:43:31;;;;;;;;;;;;;;;29.05;41.68;99981.56;5051359;28;958;-38
2022/06/12 11:46:05;;;;;;;;;;;;;;;29.07;41.64;99965.94;5056816;28;954;-39
2022/06/12 11:48:56;;;;;;;;;;;;;;;29.14;41.28;99970.50;5051812;28;1107;-39
2022/06/12 11:51:40;;;;;;;;;;;;;;;28.90;39.37;99960.16;5024065;28;1174;-40
2022/06/12 11:54:26;;;;;;;;;;;;;;;28.79;38.94;99968.94;5056818;28;958;-40
2022/06/12 11:56:51;;;;;;;;;;;;;;;28.96;38.75;99958.47;5039255;28;1902;-40
2022/06/12 11:59:32;;;;;;;;;;;;;;;28.95;37.89;99951.38;5056692;28;962;-40
2022/06/12 12:02:01;;;;;;;;;;;;;;;28.87;37.85;99949.75;5038102;28;1156;-40
2022/06/12 12:04:26;;;;;;;;;;;;;;;28.73;37.64;99954.38;5056724;28;839;-38
2022/06/12 12:07:18;;;;;;;;;;;;;;;28.61;37.75;99948.81;5056425;28;1246;-41
2022/06/12 12:09:55;;;;;;;;;;;;;;;28.70;37.31;99938.56;5026927;28;1058;-40
2022/06/12 12:12:22;;;;;;;;;;;;;;;28.63;37.44;99930.47;5053147;28;994;-38
2022/06/12 12:14:47;;;;;;;;;;;;;;;28.67;36.91;99928.16;5038741;28;1010;-40
2022/06/12 12:17:17;;;;;;;;;;;;;;;28.63;37.31;99927.75;5056445;28;1923;-40
2022/06/12 12:19:42;;;;;;;;;;;;;;;28.74;37.66;99923.56;5039224;28;1002;-39
2022/06/12 12:22:15;;;;;;;;;;;;;;;28.55;37.21;99942.34;5056756;28;1136;-40
2022/06/12 12:24:46;;;;;;;;;;;;;;;28.56;35.99;99922.38;5057127;28;1017;-40
2022/06/12 12:27:15;;;;;;;;;;;;;;;28.15;32.48;99929.72;5038347;28;1098;-39
2022/06/12 12:29:40;;;;;;;;;;;;;;;27.97;33.03;99925.78;5056754;28;820;-40
2022/06/12 12:32:06;;;;;;;;;;;;;;;27.85;33.78;99922.03;5038524;28;1033;-41
2022/06/12 12:34:31;;;;;;;;;;;;;;;27.78;33.88;99929.34;5056869;28;1147;-40
2022/06/12 12:42:24;;;;;;;;;;;;;;;27.86;33.94;99921.84;5040974;28;931;-41
2022/06/12 12:44:50;;;;;;;;;;;;;;;28.06;34.46;99923.69;5053561;28;1052;-41
2022/06/12 12:47:23;;;;;;;;;;;;;;;28.35;35.55;99928.88;5052069;28;1155;-40
2022/06/12 12:49:48;;;;;;;;;;;;;;;28.39;33.94;99922.00;5033584;28;1010;-40
2022/06/12 12:52:20;;;;;;;;;;;;;;;28.41;34.34;99919.09;5053179;28;974;-40
2022/06/12 12:54:56;;;;;;;;;;;;;;;28.41;34.94;99928.03;5054256;28;1098;-40
2022/06/12 12:57:34;;;;;;;;;;;;;;;28.61;37.09;99924.47;5038122;28;1902;-38
2022/06/12 12:59:59;;;;;;;;;;;;;;;28.64;37.65;99932.16;5054836;28;1140;-40
2022/06/12 13:02:29;;;;;;;;;;;;;;;28.62;37.78;99928.81;5037478;28;1045;-35
2022/06/12 13:04:58;;;;;;;;;;;;;;;28.68;37.86;99941.47;5037857;28;1180;-41
2022/06/12 13:07:23;;;;;;;;;;;;;;;28.76;38.28;99937.69;5055827;28;1018;-38
2022/06/12 13:10:12;;;;;;;;;;;;;;;28.82;38.34;99946.84;5055563;28;1140;-41
2022/06/12 13:12:49;;;;;;;;;;;;;;;28.80;37.94;99946.22;5037593;28;1148;-41
2022/06/12 13:15:33;;;;;;;;;;;;;;;28.86;36.99;99956.22;5055022;28;1120;-40
2022/06/12 13:18:09;;;;;;;;;;;;;;;28.80;37.11;99955.19;5055574;28;958;-40
2022/06/12 13:21:04;;;;;;;;;;;;;;;28.79;36.44;99961.66;5033893;28;1097;-40
2022/06/12 13:23:48;;;;;;;;;;;;;;;28.70;36.30;99965.63;5042595;28;1250;-41